Time;durP1;ratioP1;P1;durP2;ratioP2;P2;SDS_P1;SDS_P2;PMS_P1;PMS_P2;Temp;Humidity;BMP_temperature;BMP_pressure;BME280_temperature;BME280_humidity;BME280_pressure;Samples;Min_cycle;Max_cycle;Signal;HPM_P1;HPM_P2
2023/12/04 00:00:57;;;;;;;;;;;;;;;-0.89;100.00;101235.97;4995436;28;20218;-74
2023/12/04 00:03:22;;;;;;;;;;;;;;;-0.87;100.00;101248.22;4991234;28;19921;-73
2023/12/04 00:05:48;;;;;;;;;;;;;;;-0.91;100.00;101250.06;4990939;28;20040;-73
2023/12/04 00:08:13;;;;;;;;;;;;;;;-0.80;100.00;101241.91;4976524;28;20279;-73
2023/12/04 00:10:38;;;;;;;;;;;;;;;-0.88;100.00;101240.34;4979512;28;20621;-74
2023/12/04 00:13:03;;;;;;;;;;;;;;;-0.79;100.00;101245.41;4991002;28;20356;-73
2023/12/04 00:15:29;;;;;;;;;;;;;;;-0.89;100.00;101238.59;4992071;28;20447;-73
2023/12/04 00:17:54;;;;;;;;;;;;;;;-1.04;100.00;101219.63;4991912;28;19965;-73
2023/12/04 00:20:19;;;;;;;;;;;;;;;-1.00;100.00;101230.97;5009786;28;20012;-75
2023/12/04 00:22:45;;;;;;;;;;;;;;;-0.97;100.00;101226.50;4992661;28;19998;-74
2023/12/04 00:25:10;;;;;;;;;;;;;;;-0.80;100.00;101220.81;4979111;28;19925;-73
2023/12/04 00:27:35;;;;;;;;;;;;;;;-0.96;100.00;101222.97;4993643;28;20028;-75
2023/12/04 00:30:03;;;;;;;;;;;;;;;-0.95;100.00;101229.97;4992939;28;20318;-74
2023/12/04 00:32:28;;;;;;;;;;;;;;;-0.95;100.00;101224.69;4977405;28;20372;-74
2023/12/04 00:34:54;;;;;;;;;;;;;;;-0.99;100.00;101225.66;4995143;28;20499;-75
2023/12/04 00:37:19;;;;;;;;;;;;;;;-1.08;100.00;101221.47;4991985;28;19928;-74
2023/12/04 00:39:44;;;;;;;;;;;;;;;-1.07;100.00;101217.94;4991501;28;19921;-74
2023/12/04 00:42:09;;;;;;;;;;;;;;;-0.98;100.00;101232.66;4994376;28;19968;-73
2023/12/04 00:44:34;;;;;;;;;;;;;;;-0.96;100.00;101230.88;4994770;28;20338;-74
2023/12/04 00:47:00;;;;;;;;;;;;;;;-1.03;100.00;101225.75;4993628;28;20525;-73
2023/12/04 00:49:25;;;;;;;;;;;;;;;-1.02;100.00;101223.09;4991775;28;20401;-75
2023/12/04 00:51:50;;;;;;;;;;;;;;;-1.08;100.00;101224.13;4993446;28;19937;-74
2023/12/04 00:54:15;;;;;;;;;;;;;;;-0.93;100.00;101212.31;4991635;28;19979;-74
2023/12/04 00:56:41;;;;;;;;;;;;;;;-0.93;100.00;101216.75;4994151;28;20012;-75
2023/12/04 00:59:07;;;;;;;;;;;;;;;-0.88;100.00;101216.63;4976400;28;19921;-73
2023/12/04 01:01:32;;;;;;;;;;;;;;;-0.96;100.00;101217.69;4992727;28;19976;-74
2023/12/04 01:03:58;;;;;;;;;;;;;;;-0.75;100.00;101212.78;4992160;28;20112;-73
2023/12/04 01:06:23;;;;;;;;;;;;;;;-0.84;100.00;101205.09;4989727;28;20276;-74
2023/12/04 01:08:48;;;;;;;;;;;;;;;-0.81;100.00;101205.03;4976603;28;19921;-74
2023/12/04 01:11:14;;;;;;;;;;;;;;;-0.86;100.00;101199.88;4975367;28;19933;-75
2023/12/04 01:13:39;;;;;;;;;;;;;;;-0.93;100.00;101196.50;4991397;28;19975;-75
2023/12/04 01:16:05;;;;;;;;;;;;;;;-0.79;100.00;101200.59;4989558;28;20396;-74
2023/12/04 01:18:30;;;;;;;;;;;;;;;-0.80;100.00;101201.50;4992342;28;20415;-74
2023/12/04 01:20:56;;;;;;;;;;;;;;;-0.85;100.00;101195.44;4994320;28;19921;-74
2023/12/04 01:23:21;;;;;;;;;;;;;;;-0.97;100.00;101193.97;4993956;28;20125;-75
2023/12/04 01:25:46;;;;;;;;;;;;;;;-0.88;100.00;101188.50;4995558;28;19928;-75
2023/12/04 01:28:11;;;;;;;;;;;;;;;-0.86;100.00;101186.69;4990727;28;20111;-75
2023/12/04 01:30:36;;;;;;;;;;;;;;;-0.79;100.00;101192.66;4991680;28;19918;-74
2023/12/04 01:33:02;;;;;;;;;;;;;;;-0.93;100.00;101185.94;4995873;28;19922;-75
2023/12/04 01:35:27;;;;;;;;;;;;;;;-0.96;100.00;101177.25;4988850;28;20001;-75
2023/12/04 01:37:52;;;;;;;;;;;;;;;-1.01;100.00;101180.03;4988696;28;19921;-73
2023/12/04 01:40:17;;;;;;;;;;;;;;;-0.92;100.00;101178.94;4993208;28;19922;-74
2023/12/04 01:42:43;;;;;;;;;;;;;;;-0.97;100.00;101184.31;4994108;28;19929;-74
2023/12/04 01:45:08;;;;;;;;;;;;;;;-0.74;100.00;101176.72;4988153;28;20376;-73
2023/12/04 01:47:34;;;;;;;;;;;;;;;-0.82;100.00;101182.19;4980105;28;19921;-76
2023/12/04 01:49:59;;;;;;;;;;;;;;;-0.94;100.00;101172.81;4991998;28;20368;-76
2023/12/04 01:52:24;;;;;;;;;;;;;;;-0.89;100.00;101175.34;4991554;28;19934;-76
2023/12/04 01:54:49;;;;;;;;;;;;;;;-0.82;100.00;101176.94;4973638;28;19973;-75
2023/12/04 01:57:14;;;;;;;;;;;;;;;-0.88;100.00;101177.06;4997150;28;20075;-76
2023/12/04 01:59:40;;;;;;;;;;;;;;;-0.99;100.00;101177.34;4991351;28;19999;-76
2023/12/04 02:02:05;;;;;;;;;;;;;;;-0.94;100.00;101171.06;4991641;28;20310;-76
2023/12/04 02:04:30;;;;;;;;;;;;;;;-0.95;100.00;101168.44;4993187;28;20320;-76
2023/12/04 02:06:55;;;;;;;;;;;;;;;-0.90;100.00;101163.94;4993418;28;19981;-75
2023/12/04 02:09:21;;;;;;;;;;;;;;;-0.82;100.00;101158.47;4992739;28;19965;-76
2023/12/04 02:11:46;;;;;;;;;;;;;;;-0.86;100.00;101155.06;4992234;28;19921;-75
2023/12/04 02:14:11;;;;;;;;;;;;;;;-0.87;100.00;101161.22;4990159;28;19921;-77
2023/12/04 02:16:38;;;;;;;;;;;;;;;-0.89;100.00;101155.13;4990561;28;20091;-75
2023/12/04 02:19:04;;;;;;;;;;;;;;;-0.84;100.00;101157.63;4992312;28;19925;-77
2023/12/04 02:21:29;;;;;;;;;;;;;;;-0.84;100.00;101147.97;5006684;28;19922;-76
2023/12/04 02:23:54;;;;;;;;;;;;;;;-0.85;100.00;101148.00;4995530;28;20015;-75
2023/12/04 02:26:22;;;;;;;;;;;;;;;-0.84;100.00;101145.34;4985158;28;20040;-76
2023/12/04 02:28:51;;;;;;;;;;;;;;;-0.93;100.00;101148.19;4974824;28;19991;-75
2023/12/04 02:31:17;;;;;;;;;;;;;;;-0.94;100.00;101144.72;4974183;28;20460;-76
2023/12/04 02:33:42;;;;;;;;;;;;;;;-0.94;100.00;101136.81;4988271;28;19921;-76
2023/12/04 02:36:07;;;;;;;;;;;;;;;-0.91;100.00;101131.41;4990457;28;19941;-76
2023/12/04 02:38:32;;;;;;;;;;;;;;;-0.86;100.00;101133.09;4976962;28;19921;-76
2023/12/04 02:40:58;;;;;;;;;;;;;;;-0.84;100.00;101126.88;4996761;28;20098;-77
2023/12/04 02:43:23;;;;;;;;;;;;;;;-0.78;100.00;101123.22;4990958;28;20041;-77
2023/12/04 02:45:48;;;;;;;;;;;;;;;-0.84;100.00;101118.97;4971735;28;20595;-77
2023/12/04 02:48:13;;;;;;;;;;;;;;;-0.78;100.00;101118.78;4988475;28;20390;-75
2023/12/04 02:50:38;;;;;;;;;;;;;;;-0.75;100.00;101115.22;4974344;28;20428;-76
2023/12/04 02:53:04;;;;;;;;;;;;;;;-0.73;100.00;101118.69;4994825;28;19921;-75
2023/12/04 02:55:29;;;;;;;;;;;;;;;-0.67;100.00;101118.53;4996578;28;19953;-76
2023/12/04 02:57:54;;;;;;;;;;;;;;;-0.83;100.00;101115.44;4997745;28;20057;-76
2023/12/04 03:00:19;;;;;;;;;;;;;;;-0.90;100.00;101113.84;4989575;28;20995;-77
2023/12/04 03:02:45;;;;;;;;;;;;;;;-0.85;100.00;101109.34;4988516;28;19921;-77
2023/12/04 03:05:10;;;;;;;;;;;;;;;-0.91;100.00;101105.06;4991258;28;19921;-77
2023/12/04 03:07:35;;;;;;;;;;;;;;;-0.85;100.00;101096.16;4994405;28;19964;-76
2023/12/04 03:10:01;;;;;;;;;;;;;;;-0.87;100.00;101097.06;4991049;28;20013;-77
2023/12/04 03:12:26;;;;;;;;;;;;;;;-0.98;100.00;101100.88;4977031;28;19927;-76
2023/12/04 03:14:51;;;;;;;;;;;;;;;-0.82;100.00;101098.72;4978316;28;19930;-76
2023/12/04 03:17:16;;;;;;;;;;;;;;;-0.86;100.00;101086.50;5007905;28;19921;-77
2023/12/04 03:19:41;;;;;;;;;;;;;;;-0.84;100.00;101075.91;4975765;28;20648;-76
2023/12/04 03:22:07;;;;;;;;;;;;;;;-0.90;100.00;101087.50;4969833;28;20020;-76
2023/12/04 03:24:32;;;;;;;;;;;;;;;-0.88;100.00;101077.78;4990032;28;20020;-76
2023/12/04 03:26:57;;;;;;;;;;;;;;;-0.96;100.00;101075.34;4990373;28;20288;-76
2023/12/04 03:29:22;;;;;;;;;;;;;;;-0.86;100.00;101070.69;4988685;28;20404;-76
2023/12/04 03:31:48;;;;;;;;;;;;;;;-0.92;100.00;101070.84;4977805;28;19987;-75
2023/12/04 03:34:13;;;;;;;;;;;;;;;-0.90;100.00;101063.75;4988466;28;19981;-76
2023/12/04 03:36:38;;;;;;;;;;;;;;;-0.92;100.00;101069.06;4974347;28;19928;-75
2023/12/04 03:39:04;;;;;;;;;;;;;;;-0.85;100.00;101063.63;4992167;28;19968;-77
2023/12/04 03:41:29;;;;;;;;;;;;;;;-0.93;100.00;101062.06;4972663;28;20004;-76
2023/12/04 03:43:54;;;;;;;;;;;;;;;-0.88;100.00;101058.44;5005712;28;20032;-76
2023/12/04 03:46:19;;;;;;;;;;;;;;;-0.96;100.00;101053.38;4988309;28;19929;-77
2023/12/04 03:48:45;;;;;;;;;;;;;;;-1.03;100.00;101049.16;4991092;28;19932;-77
2023/12/04 03:51:10;;;;;;;;;;;;;;;-0.91;100.00;101047.06;4984986;28;20194;-77
2023/12/04 03:53:35;;;;;;;;;;;;;;;-0.91;100.00;101047.06;4989679;28;20368;-76
2023/12/04 03:56:00;;;;;;;;;;;;;;;-0.91;100.00;101036.53;4990468;28;19921;-76
2023/12/04 03:58:25;;;;;;;;;;;;;;;-0.93;100.00;101040.97;4988942;28;19926;-77
2023/12/04 04:00:51;;;;;;;;;;;;;;;-0.82;100.00;101027.53;4973808;28;19960;-78
2023/12/04 04:03:16;;;;;;;;;;;;;;;-0.83;100.00;101025.78;4988118;28;20016;-77
2023/12/04 04:05:41;;;;;;;;;;;;;;;-0.98;100.00;101019.16;4989042;28;20016;-77
2023/12/04 04:08:07;;;;;;;;;;;;;;;-0.94;100.00;101017.28;5003290;28;19925;-76
2023/12/04 04:10:32;;;;;;;;;;;;;;;-1.02;100.00;101016.63;4990266;28;19961;-77
2023/12/04 04:12:58;;;;;;;;;;;;;;;-0.87;100.00;101013.59;4988468;28;19926;-77
2023/12/04 04:15:23;;;;;;;;;;;;;;;-0.98;100.00;101005.97;4991471;28;19921;-76
2023/12/04 04:17:48;;;;;;;;;;;;;;;-0.99;100.00;101012.16;4991183;28;20265;-77
2023/12/04 04:20:14;;;;;;;;;;;;;;;-0.95;100.00;101013.81;4994316;28;19976;-76
2023/12/04 04:22:40;;;;;;;;;;;;;;;-1.10;100.00;101006.28;4990833;28;20019;-77
2023/12/04 04:25:06;;;;;;;;;;;;;;;-1.01;100.00;101005.19;5009269;28;20292;-78
2023/12/04 04:27:31;;;;;;;;;;;;;;;-0.88;100.00;101003.06;4995354;28;19928;-77
2023/12/04 04:29:56;;;;;;;;;;;;;;;-0.93;100.00;100995.31;4992427;28;19925;-78
2023/12/04 04:32:22;;;;;;;;;;;;;;;-0.81;100.00;101007.28;4976115;28;19932;-75
2023/12/04 04:34:47;;;;;;;;;;;;;;;-0.82;100.00;100985.34;4991609;28;19921;-77
2023/12/04 04:37:12;;;;;;;;;;;;;;;-0.98;100.00;100991.91;4993938;28;19921;-77
2023/12/04 04:39:39;;;;;;;;;;;;;;;-0.96;100.00;100982.19;4997653;28;19921;-76
2023/12/04 04:42:04;;;;;;;;;;;;;;;-0.94;100.00;100989.19;4991258;28;20391;-75
2023/12/04 04:44:29;;;;;;;;;;;;;;;-0.93;100.00;100990.03;4977987;28;19924;-78
2023/12/04 04:46:55;;;;;;;;;;;;;;;-0.87;100.00;100978.44;4990264;28;20455;-77
2023/12/04 04:49:20;;;;;;;;;;;;;;;-0.96;100.00;100980.44;4974490;28;19925;-76
2023/12/04 04:51:45;;;;;;;;;;;;;;;-0.98;100.00;100977.00;4991213;28;20230;-76
2023/12/04 04:54:10;;;;;;;;;;;;;;;-0.99;100.00;100984.91;4987835;28;19948;-76
2023/12/04 04:56:35;;;;;;;;;;;;;;;-1.00;100.00;100973.53;4978736;28;19925;-75
2023/12/04 04:59:01;;;;;;;;;;;;;;;-0.99;100.00;100972.63;4979130;28;20537;-77
2023/12/04 05:01:26;;;;;;;;;;;;;;;-0.99;100.00;100971.75;4993449;28;19972;-78
2023/12/04 05:03:51;;;;;;;;;;;;;;;-0.91;100.00;100969.78;4990858;28;19925;-76
2023/12/04 05:06:16;;;;;;;;;;;;;;;-0.87;100.00;100963.50;5007837;28;19961;-77
2023/12/04 05:08:42;;;;;;;;;;;;;;;-0.99;100.00;100974.38;4985715;28;20412;-79
2023/12/04 05:11:07;;;;;;;;;;;;;;;-0.97;100.00;100984.00;4976963;28;19921;-75
2023/12/04 05:13:32;;;;;;;;;;;;;;;-0.96;100.00;100974.28;4982402;28;20161;-77
2023/12/04 05:15:57;;;;;;;;;;;;;;;-0.89;100.00;100972.34;4976835;28;20447;-76
2023/12/04 05:18:22;;;;;;;;;;;;;;;-0.92;100.00;100973.31;4990225;28;20333;-76
2023/12/04 05:20:48;;;;;;;;;;;;;;;-0.94;100.00;100977.75;4987890;28;20454;-77
2023/12/04 05:23:13;;;;;;;;;;;;;;;-0.95;100.00;100962.84;4985812;28;19956;-77
2023/12/04 05:25:38;;;;;;;;;;;;;;;-0.94;100.00;100961.94;4990270;28;19922;-76
2023/12/04 05:28:04;;;;;;;;;;;;;;;-1.01;100.00;100966.53;4973485;28;20616;-76
2023/12/04 05:30:29;;;;;;;;;;;;;;;-1.02;100.00;100959.53;4994982;28;19953;-76
2023/12/04 05:32:54;;;;;;;;;;;;;;;-0.87;100.00;100968.78;4969243;28;19964;-76
2023/12/04 05:35:19;;;;;;;;;;;;;;;-0.92;100.00;100958.34;4993745;28;20040;-76
2023/12/04 05:37:45;;;;;;;;;;;;;;;-0.94;100.00;100959.31;4973093;28;20402;-76
2023/12/04 05:40:10;;;;;;;;;;;;;;;-0.98;100.00;100950.63;4988902;28;20410;-77
2023/12/04 05:42:36;;;;;;;;;;;;;;;-1.03;100.00;100947.25;4976834;28;19936;-76
2023/12/04 05:45:01;;;;;;;;;;;;;;;-0.98;100.00;100940.09;4976817;28;19948;-77
2023/12/04 05:47:26;;;;;;;;;;;;;;;-0.98;100.00;100934.81;4972779;28;20028;-75
2023/12/04 05:49:51;;;;;;;;;;;;;;;-0.82;100.00;100927.34;4990370;28;20020;-76
2023/12/04 05:52:17;;;;;;;;;;;;;;;-0.93;100.00;100926.78;5004507;28;20016;-76
2023/12/04 05:54:42;;;;;;;;;;;;;;;-1.00;100.00;100925.22;4990194;28;19968;-75
2023/12/04 05:57:07;;;;;;;;;;;;;;;-1.02;100.00;100920.00;4975366;28;20012;-76
2023/12/04 05:59:32;;;;;;;;;;;;;;;-0.81;100.00;100917.63;4979613;28;20304;-76
2023/12/04 06:01:57;;;;;;;;;;;;;;;-0.84;100.00;100912.44;4988019;28;20715;-76
2023/12/04 06:04:23;;;;;;;;;;;;;;;-0.91;100.00;100917.91;4991755;28;20644;-76
2023/12/04 06:06:48;;;;;;;;;;;;;;;-0.95;100.00;100918.91;4991418;28;20425;-76
2023/12/04 06:09:16;;;;;;;;;;;;;;;-0.81;100.00;100915.88;4988315;28;19968;-75
2023/12/04 06:11:41;;;;;;;;;;;;;;;-0.89;100.00;100922.25;4989929;28;19921;-75
2023/12/04 06:14:06;;;;;;;;;;;;;;;-0.91;100.00;100923.16;5004047;28;20332;-76
2023/12/04 06:16:31;;;;;;;;;;;;;;;-0.96;100.00;100926.84;4992851;28;20367;-77
2023/12/04 06:18:57;;;;;;;;;;;;;;;-0.86;100.00;100924.81;4974185;28;20099;-75
2023/12/04 06:21:22;;;;;;;;;;;;;;;-0.83;100.00;100920.34;4994061;28;20023;-76
2023/12/04 06:23:47;;;;;;;;;;;;;;;-0.71;100.00;100915.59;5006722;28;20314;-77
2023/12/04 06:26:13;;;;;;;;;;;;;;;-0.91;100.00;100904.72;4974211;28;20272;-75
2023/12/04 06:28:38;;;;;;;;;;;;;;;-0.82;100.00;100908.00;4987818;28;19932;-75
2023/12/04 06:31:03;;;;;;;;;;;;;;;-0.82;100.00;100900.97;4994027;28;20269;-76
2023/12/04 06:33:29;;;;;;;;;;;;;;;-0.86;100.00;100894.06;4976726;28;19917;-77
2023/12/04 06:35:54;;;;;;;;;;;;;;;-0.83;100.00;100883.44;4995033;28;19964;-76
2023/12/04 06:38:19;;;;;;;;;;;;;;;-0.87;100.00;100879.16;4989722;28;20011;-77
2023/12/04 06:40:44;;;;;;;;;;;;;;;-0.79;100.00;100877.13;4975388;28;20036;-76
2023/12/04 06:43:10;;;;;;;;;;;;;;;-0.73;100.00;100875.22;4989541;28;20126;-76
2023/12/04 06:45:35;;;;;;;;;;;;;;;-0.83;100.00;100878.16;4992310;28;20505;-76
2023/12/04 06:48:00;;;;;;;;;;;;;;;-0.80;100.00;100877.19;4977024;28;19963;-77
2023/12/04 06:50:26;;;;;;;;;;;;;;;-0.91;100.00;100870.44;4986291;28;20000;-77
2023/12/04 06:52:51;;;;;;;;;;;;;;;-0.83;100.00;100858.81;4975240;28;19928;-76
2023/12/04 06:55:16;;;;;;;;;;;;;;;-0.88;100.00;100852.81;4987163;28;19972;-77
2023/12/04 06:57:42;;;;;;;;;;;;;;;-0.92;100.00;100846.78;5005895;28;20435;-76
2023/12/04 07:00:08;;;;;;;;;;;;;;;-0.82;100.00;100842.97;4985371;28;19921;-77
2023/12/04 07:02:33;;;;;;;;;;;;;;;-0.95;100.00;100846.88;4988447;28;19933;-77
2023/12/04 07:04:58;;;;;;;;;;;;;;;-0.93;100.00;100837.16;4988849;28;19960;-77
2023/12/04 07:07:23;;;;;;;;;;;;;;;-0.85;100.00;100831.63;4994493;28;20572;-75
2023/12/04 07:09:49;;;;;;;;;;;;;;;-0.96;100.00;100827.56;4988676;28;19921;-78
2023/12/04 07:12:14;;;;;;;;;;;;;;;-0.97;100.00;100828.47;4986729;28;19931;-77
2023/12/04 07:14:39;;;;;;;;;;;;;;;-0.89;100.00;100814.19;4991377;28;19929;-78
2023/12/04 07:17:04;;;;;;;;;;;;;;;-0.84;100.00;100821.06;4977185;28;19925;-75
2023/12/04 07:19:30;;;;;;;;;;;;;;;-0.89;100.00;100819.44;4987483;28;19918;-77
2023/12/04 07:21:55;;;;;;;;;;;;;;;-0.88;100.00;100814.16;4990377;28;19928;-78
2023/12/04 07:24:21;;;;;;;;;;;;;;;-0.87;100.00;100809.72;4979056;28;19964;-76
2023/12/04 07:26:46;;;;;;;;;;;;;;;-0.89;100.00;100801.00;4993917;28;19999;-77
2023/12/04 07:29:11;;;;;;;;;;;;;;;-0.92;100.00;100800.19;4981864;28;20283;-79
2023/12/04 07:31:37;;;;;;;;;;;;;;;-0.86;100.00;100793.00;4990138;28;20467;-79
2023/12/04 07:34:02;;;;;;;;;;;;;;;-0.97;100.00;100778.41;4986373;28;19928;-77
2023/12/04 07:36:28;;;;;;;;;;;;;;;-0.67;100.00;100814.38;4993529;28;20380;-76
2023/12/04 07:38:53;;;;;;;;;;;;;;;-0.58;100.00;100834.34;4972653;28;19932;-76
2023/12/04 07:41:19;;;;;;;;;;;;;;;-0.57;100.00;100836.06;4993175;28;19921;-76
2023/12/04 07:43:44;;;;;;;;;;;;;;;-0.70;100.00;100839.09;4996581;28;19975;-78
2023/12/04 07:46:10;;;;;;;;;;;;;;;-0.79;100.00;100836.72;4988430;28;19925;-77
2023/12/04 07:48:35;;;;;;;;;;;;;;;-0.67;100.00;100844.28;4970791;28;19925;-77
2023/12/04 07:51:01;;;;;;;;;;;;;;;-0.64;100.00;100832.75;4973071;28;20384;-75
2023/12/04 07:53:26;;;;;;;;;;;;;;;-0.84;100.00;100828.97;4966167;28;20420;-77
2023/12/04 07:55:51;;;;;;;;;;;;;;;-0.77;100.00;100827.00;4967009;28;20378;-77
2023/12/04 07:58:17;;;;;;;;;;;;;;;-0.71;100.00;100826.81;4992935;28;20340;-77
2023/12/04 08:00:42;;;;;;;;;;;;;;;-0.75;100.00;100827.81;4991704;28;19928;-77
2023/12/04 08:03:07;;;;;;;;;;;;;;;-0.65;100.00;100828.38;4992194;28;19960;-77
2023/12/04 08:05:33;;;;;;;;;;;;;;;-0.56;100.00;100822.84;5005946;28;19925;-76
2023/12/04 08:07:58;;;;;;;;;;;;;;;-0.71;100.00;100815.38;4972757;28;20032;-78
2023/12/04 08:10:23;;;;;;;;;;;;;;;-0.71;100.00;100820.66;4989017;28;20063;-77
2023/12/04 08:12:49;;;;;;;;;;;;;;;-0.46;100.00;100821.63;4986361;28;19980;-76
2023/12/04 08:15:14;;;;;;;;;;;;;;;-0.67;100.00;100822.31;4989609;28;20125;-78
2023/12/04 08:17:39;;;;;;;;;;;;;;;-0.61;100.00;100819.47;4977444;28;19944;-77
2023/12/04 08:20:04;;;;;;;;;;;;;;;-0.48;100.00;100815.53;4993900;28;19921;-76
2023/12/04 08:22:30;;;;;;;;;;;;;;;-0.62;100.00;100817.75;4992103;28;20814;-77
2023/12/04 08:24:55;;;;;;;;;;;;;;;-0.65;100.00;100815.22;4993561;28;19940;-78
2023/12/04 08:27:20;;;;;;;;;;;;;;;-0.74;100.00;100816.38;4975253;28;19980;-78
2023/12/04 08:29:45;;;;;;;;;;;;;;;-0.63;100.00;100816.03;4993819;28;19921;-77
2023/12/04 08:32:11;;;;;;;;;;;;;;;-0.58;100.00;100803.56;4988313;28;19922;-77
2023/12/04 08:34:36;;;;;;;;;;;;;;;-0.51;100.00;100801.59;4992536;28;20233;-76
2023/12/04 08:37:01;;;;;;;;;;;;;;;-0.46;100.00;100802.31;4997076;28;20005;-77
2023/12/04 08:39:26;;;;;;;;;;;;;;;-0.59;100.00;100788.66;4977902;28;19969;-77
2023/12/04 08:41:52;;;;;;;;;;;;;;;-0.66;100.00;100797.66;4992877;28;20036;-77
2023/12/04 08:44:17;;;;;;;;;;;;;;;-0.63;100.00;100795.78;5004526;28;19921;-75
2023/12/04 08:46:43;;;;;;;;;;;;;;;-0.57;100.00;100786.81;4992327;28;19980;-78
2023/12/04 08:49:08;;;;;;;;;;;;;;;-0.44;100.00;100787.28;4999359;28;19956;-78
2023/12/04 08:51:34;;;;;;;;;;;;;;;-0.44;100.00;100786.41;4997135;28;19964;-77
2023/12/04 08:53:59;;;;;;;;;;;;;;;-0.48;100.00;100780.38;5008507;28;20003;-77
2023/12/04 08:56:24;;;;;;;;;;;;;;;-0.42;100.00;100776.66;4991851;28;19926;-77
2023/12/04 08:58:50;;;;;;;;;;;;;;;-0.36;100.00;100761.50;4989933;28;19930;-77
2023/12/04 09:01:15;;;;;;;;;;;;;;;-0.23;100.00;100764.56;4995428;28;19931;-77
2023/12/04 09:03:40;;;;;;;;;;;;;;;-0.37;100.00;100765.03;4976866;28;19981;-77
2023/12/04 09:06:06;;;;;;;;;;;;;;;-0.34;100.00;100759.66;4991738;28;19921;-78
2023/12/04 09:08:32;;;;;;;;;;;;;;;-0.67;100.00;100712.44;4993138;28;19977;-77
2023/12/04 09:10:57;;;;;;;;;;;;;;;-0.38;100.00;100757.19;4973768;28;19929;-77
2023/12/04 09:13:23;;;;;;;;;;;;;;;-0.25;100.00;100750.56;4990343;28;19925;-77
2023/12/04 09:15:48;;;;;;;;;;;;;;;-0.15;100.00;100743.22;4997550;28;19970;-78
2023/12/04 09:18:13;;;;;;;;;;;;;;;-0.25;100.00;100742.66;4988827;28;19956;-78
2023/12/04 09:20:38;;;;;;;;;;;;;;;-0.19;100.00;100738.97;4994432;28;20012;-76
2023/12/04 09:23:03;;;;;;;;;;;;;;;-0.33;100.00;100731.53;4975293;28;19921;-76
2023/12/04 09:25:29;;;;;;;;;;;;;;;-0.19;100.00;100733.69;4989321;28;19928;-75
2023/12/04 09:27:54;;;;;;;;;;;;;;;-0.10;100.00;100733.34;4996412;28;19921;-78
2023/12/04 09:30:19;;;;;;;;;;;;;;;-0.10;100.00;100738.63;4979180;28;19921;-76
2023/12/04 09:32:44;;;;;;;;;;;;;;;-0.19;100.00;100736.31;4993790;28;19921;-78
2023/12/04 09:35:10;;;;;;;;;;;;;;;-0.12;100.00;100739.59;4996169;28;19921;-76
2023/12/04 09:37:35;;;;;;;;;;;;;;;0.00;100.00;100733.91;4971854;28;19980;-75
2023/12/04 09:40:00;;;;;;;;;;;;;;;-0.09;100.00;100747.41;4980058;28;19936;-77
2023/12/04 09:42:26;;;;;;;;;;;;;;;-0.13;100.00;100741.38;4977884;28;19921;-77
2023/12/04 09:44:52;;;;;;;;;;;;;;;-0.37;100.00;100699.09;4988387;28;20328;-75
2023/12/04 09:47:17;;;;;;;;;;;;;;;-0.19;100.00;100745.09;4995586;28;20023;-76
2023/12/04 09:49:43;;;;;;;;;;;;;;;-0.16;100.00;100736.22;4989450;28;19972;-77
2023/12/04 09:52:08;;;;;;;;;;;;;;;-0.10;100.00;100729.88;4992879;28;19925;-77
2023/12/04 09:54:34;;;;;;;;;;;;;;;-0.13;100.00;100728.16;4979181;28;19968;-80
2023/12/04 09:56:59;;;;;;;;;;;;;;;-0.08;100.00;100725.41;4993373;28;20299;-76
2023/12/04 09:59:29;;;;;;;;;;;;;;;-0.08;100.00;100726.25;4992920;28;19925;-78
2023/12/04 10:01:54;;;;;;;;;;;;;;;0.10;100.00;100727.38;4993226;28;20297;-79
2023/12/04 10:04:21;;;;;;;;;;;;;;;-0.11;100.00;100723.72;4972626;28;19921;-76
2023/12/04 10:06:46;;;;;;;;;;;;;;;-0.12;100.00;100732.53;4990101;28;20013;-79
2023/12/04 10:09:13;;;;;;;;;;;;;;;0.01;100.00;100711.00;4991929;28;19932;-77
2023/12/04 10:11:41;;;;;;;;;;;;;;;0.00;100.00;100720.72;4993233;28;19921;-77
2023/12/04 10:14:13;;;;;;;;;;;;;;;-0.06;100.00;100710.38;4998810;28;20216;-78
2023/12/04 10:16:38;;;;;;;;;;;;;;;0.01;100.00;100709.22;4991970;28;20391;-78
2023/12/04 10:19:17;;;;;;;;;;;;;;;0.03;100.00;100706.53;4988542;28;19976;-77
2023/12/04 10:21:43;;;;;;;;;;;;;;;-0.05;100.00;100712.09;4996843;28;19928;-77
2023/12/04 10:24:08;;;;;;;;;;;;;;;-0.02;100.00;100707.56;5004480;28;19926;-79
2023/12/04 10:26:34;;;;;;;;;;;;;;;0.01;100.00;100705.72;4994218;28;19917;-79
2023/12/04 10:29:00;;;;;;;;;;;;;;;-0.04;100.00;100705.91;4994579;28;19926;-78
2023/12/04 10:31:25;;;;;;;;;;;;;;;-0.02;100.00;100688.22;4993819;28;19917;-78
2023/12/04 10:33:50;;;;;;;;;;;;;;;0.04;100.00;100693.25;4987620;28;19926;-78
2023/12/04 10:36:17;;;;;;;;;;;;;;;0.04;100.00;100687.97;4995110;28;19961;-79
2023/12/04 10:38:42;;;;;;;;;;;;;;;0.00;100.00;100681.13;5004882;28;20435;-79
2023/12/04 10:41:14;;;;;;;;;;;;;;;0.04;100.00;100673.94;4991909;28;19932;-78
2023/12/04 10:43:48;;;;;;;;;;;;;;;-0.06;100.00;100678.69;4990250;28;19927;-79
2023/12/04 10:46:16;;;;;;;;;;;;;;;0.03;100.00;100667.78;4988350;28;19964;-80
2023/12/04 10:48:41;;;;;;;;;;;;;;;0.07;100.00;100665.91;4991980;28;20352;-79
2023/12/04 10:51:07;;;;;;;;;;;;;;;0.10;100.00;100656.09;4977986;28;19928;-79
2023/12/04 10:53:32;;;;;;;;;;;;;;;0.13;100.00;100653.34;4997247;28;20334;-79
2023/12/04 10:55:58;;;;;;;;;;;;;;;0.16;100.00;100656.78;4992622;28;20402;-78
2023/12/04 10:58:23;;;;;;;;;;;;;;;0.10;100.00;100647.31;4997806;28;19928;-80
2023/12/04 11:00:48;;;;;;;;;;;;;;;0.20;100.00;100647.81;4994218;28;19983;-79
2023/12/04 11:03:33;;;;;;;;;;;;;;;0.21;100.00;100641.63;4989356;28;19968;-79
2023/12/04 11:06:01;;;;;;;;;;;;;;;0.15;100.00;100640.06;4999881;28;19965;-79
2023/12/04 11:08:28;;;;;;;;;;;;;;;0.31;100.00;100629.78;4976180;28;20380;-79
2023/12/04 11:10:58;;;;;;;;;;;;;;;0.29;100.00;100621.06;4990457;28;19918;-83
2023/12/04 11:13:30;;;;;;;;;;;;;;;0.11;100.00;100601.53;4977027;28;19956;-80
2023/12/04 11:15:56;;;;;;;;;;;;;;;0.20;100.00;100621.41;4974425;28;19928;-79
2023/12/04 11:18:23;;;;;;;;;;;;;;;0.22;100.00;100609.88;4997099;28;19925;-80
2023/12/04 11:20:51;;;;;;;;;;;;;;;0.18;100.00;100612.69;4967780;28;19926;-80
2023/12/04 11:23:16;;;;;;;;;;;;;;;0.29;100.00;100606.09;4984824;28;20320;-78
2023/12/04 11:25:43;;;;;;;;;;;;;;;0.26;100.00;100597.44;4984157;28;20078;-79
2023/12/04 11:28:09;;;;;;;;;;;;;;;0.39;100.00;100593.38;5006491;28;20291;-79
2023/12/04 11:30:34;;;;;;;;;;;;;;;0.40;100.00;100584.53;4991682;28;20356;-84
2023/12/04 11:33:00;;;;;;;;;;;;;;;0.36;100.00;100582.06;4992336;28;20426;-84
2023/12/04 11:35:25;;;;;;;;;;;;;;;0.36;100.00;100582.06;4973785;28;20376;-79
2023/12/04 11:37:50;;;;;;;;;;;;;;;0.47;100.00;100574.56;5000231;28;19926;-80
2023/12/04 11:40:15;;;;;;;;;;;;;;;0.49;100.00;100585.94;4992403;28;19928;-78
2023/12/04 11:42:41;;;;;;;;;;;;;;;0.43;100.00;100572.97;5008062;28;19921;-79
2023/12/04 11:45:06;;;;;;;;;;;;;;;0.40;100.00;100568.69;5002844;28;20321;-79
2023/12/04 11:47:48;;;;;;;;;;;;;;;0.57;100.00;100575.94;4975917;28;20391;-78
2023/12/04 11:50:13;;;;;;;;;;;;;;;0.62;100.00;100577.53;5011256;28;19986;-80
2023/12/04 11:52:38;;;;;;;;;;;;;;;0.51;100.00;100578.81;4993298;28;20016;-79
2023/12/04 11:55:05;;;;;;;;;;;;;;;0.47;100.00;100566.66;4978289;28;19924;-78
2023/12/04 11:57:34;;;;;;;;;;;;;;;0.43;100.00;100562.41;4994671;28;19922;-82
2023/12/04 12:00:19;;;;;;;;;;;;;;;0.49;100.00;100563.97;4992485;28;20024;-78
2023/12/04 12:02:54;;;;;;;;;;;;;;;0.58;100.00;100548.59;4994535;28;19929;-78
2023/12/04 12:05:21;;;;;;;;;;;;;;;0.48;100.00;100562.25;4994927;28;19932;-75
2023/12/04 12:07:46;;;;;;;;;;;;;;;0.50;100.00;100558.59;4992823;28;19964;-79
2023/12/04 12:10:13;;;;;;;;;;;;;;;0.54;100.00;100547.00;4996366;28;20020;-78
2023/12/04 12:12:38;;;;;;;;;;;;;;;0.58;100.00;100543.31;4996251;28;19944;-77
2023/12/04 12:15:04;;;;;;;;;;;;;;;0.52;100.00;100548.84;4998748;28;20280;-77
2023/12/04 12:17:29;;;;;;;;;;;;;;;0.60;100.00;100535.31;4977664;28;19960;-78
2023/12/04 12:19:57;;;;;;;;;;;;;;;0.54;100.00;100523.22;4972010;28;19921;-76